createdAt,value
2023-02-22T06:07:04.720Z,141545.88
2023-02-22T06:12:08.620Z,141550.81
2023-02-22T06:17:11.925Z,141580.38
2023-02-22T06:22:18.600Z,141597.69
2023-02-22T06:27:22.038Z,141626.03
2023-02-22T06:32:25.604Z,141649.50
2023-02-22T06:37:30.595Z,141670.41
2023-02-22T06:42:33.942Z,141696.34
2023-02-22T06:47:39.302Z,141769.16
2023-02-22T06:52:44.803Z,141749.41
2023-02-22T06:57:48.189Z,141749.41
2023-02-22T07:02:51.955Z,141746.94
2023-02-22T07:08:02.753Z,141776.56
2023-02-22T07:13:10.439Z,141835.78
2023-02-22T07:18:16.581Z,141858.03
2023-02-22T07:23:21.494Z,141870.34
2023-02-22T07:28:24.984Z,141888.88
2023-02-22T07:33:28.290Z,141927.19
2023-02-22T07:38:33.269Z,141949.38
2023-02-22T07:43:36.947Z,141992.59
2023-02-22T07:48:40.574Z,142030.84
2023-02-22T07:53:48.137Z,142055.56
2023-02-22T07:58:51.598Z,142124.78
2023-02-22T08:03:57.372Z,142139.59
2023-02-22T08:09:02.462Z,142132.19
2023-02-22T08:14:06.353Z,142101.31
2023-02-22T08:19:09.751Z,142122.28
2023-02-22T08:24:14.468Z,142116.09
2023-02-22T08:29:17.828Z,142106.25
2023-02-22T08:34:21.168Z,142142.06
2023-02-22T08:39:25.891Z,142191.50
2023-02-22T08:44:29.214Z,142184.09
2023-02-22T08:49:32.666Z,142177.91
2023-02-22T08:54:37.330Z,142213.78
2023-02-22T08:59:41.027Z,142223.66
2023-02-22T09:04:44.348Z,142193.97
2023-02-22T09:09:51.224Z,142189.03
2023-02-22T09:14:54.533Z,142176.66
2023-02-22T09:20:00.466Z,142151.97
2023-02-22T09:25:16.817Z,142124.78
2023-02-22T09:30:23.842Z,142086.44
2023-02-22T09:35:28.153Z,142149.47
2023-02-22T09:40:33.842Z,142097.59
2023-02-22T09:45:40.014Z,142217.47
2023-02-22T09:50:46.384Z,142233.53
2023-02-22T09:55:53.810Z,142300.31
2023-02-22T10:00:59.760Z,142321.34
2023-02-22T10:06:05.325Z,142347.28
2023-02-22T10:11:17.209Z,142325.06
2023-02-22T10:16:25.306Z,142420.28
2023-02-22T10:21:37.109Z,142475.97
2023-02-22T10:26:45.242Z,142518.06
2023-02-22T10:31:52.762Z,142529.19
2023-02-22T10:37:00.105Z,142568.72
2023-02-22T10:42:08.008Z,142490.84
2023-02-22T10:47:12.643Z,142571.19
2023-02-22T10:52:20.796Z,142591.03
2023-02-22T10:57:26.799Z,142655.38
2023-02-22T11:02:31.522Z,142644.25
2023-02-22T11:07:36.397Z,142696.28
2023-02-22T11:12:44.717Z,142728.47
2023-02-22T11:17:51.598Z,142656.63
2023-02-22T11:23:00.927Z,142719.81
2023-02-22T11:28:10.817Z,142763.13
2023-02-22T11:33:23.379Z,142752.00
2023-02-22T11:38:28.348Z,142734.66
2023-02-22T11:43:33.579Z,142756.97
2023-02-22T11:48:39.490Z,142744.59
2023-02-22T11:53:49.271Z,142712.34
2023-02-22T11:58:59.741Z,142791.63
2023-02-22T12:04:22.480Z,142792.88
2023-02-22T12:09:33.592Z,142820.13
2023-02-22T12:14:42.191Z,142787.91
2023-02-22T12:19:48.599Z,142780.50
2023-02-22T12:25:08.592Z,142745.84
2023-02-22T12:30:17.936Z,142734.66
2023-02-22T12:35:22.899Z,142697.50
2023-02-22T12:40:30.796Z,142683.88
2023-02-22T12:45:37.878Z,142697.50
2023-02-22T12:50:42.865Z,142714.88
2023-02-22T12:55:49.150Z,142733.41
2023-02-22T13:00:57.853Z,142805.28
2023-02-22T13:06:10.834Z,142782.97
2023-02-22T13:11:20.621Z,142832.53
2023-02-22T13:16:32.669Z,142830.06
2023-02-22T13:21:43.332Z,142709.88
2023-02-22T13:26:50.556Z,142691.34
2023-02-22T13:32:12.422Z,142654.16
2023-02-22T13:37:35.786Z,142670.28
2023-02-22T13:42:49.037Z,142621.97
2023-02-22T13:48:09.277Z,142623.19
2023-02-22T13:53:14.830Z,142646.72
2023-02-22T13:58:18.190Z,142691.34
2023-02-22T14:03:42.507Z,142681.38
2023-02-22T14:08:47.573Z,142650.44
2023-02-22T14:14:20.643Z,142594.72
2023-02-22T14:19:24.991Z,142670.28
2023-02-22T14:24:30.880Z,142640.56
2023-02-22T14:29:34.140Z,142592.25
2023-02-22T14:34:58.121Z,142539.06
2023-02-22T14:40:12.867Z,142516.78
2023-02-22T14:45:21.002Z,142524.25
2023-02-22T14:50:30.125Z,142536.59
2023-02-22T14:55:38.650Z,142527.94
2023-02-22T15:00:45.903Z,142485.84
2023-02-22T15:05:49.824Z,142497.00
2023-02-22T15:10:55.335Z,142469.78
2023-02-22T15:16:01.876Z,142404.19
2023-02-22T15:21:07.177Z,142386.88
2023-02-22T15:26:18.428Z,142386.88
2023-02-22T15:31:27.440Z,142404.19
2023-02-22T15:36:31.934Z,142348.53
2023-02-22T15:41:37.483Z,142391.84
2023-02-22T15:46:43.595Z,142391.84
2023-02-22T15:51:51.619Z,142323.81
2023-02-22T15:56:56.758Z,142334.94
2023-02-22T16:02:01.204Z,142318.84
2023-02-22T16:07:07.015Z,142307.72
2023-02-22T16:12:25.312Z,142296.63
2023-02-22T16:17:31.952Z,142266.94
2023-02-22T16:22:36.298Z,142234.75
2023-02-22T16:27:47.452Z,142177.91
2023-02-22T16:32:50.921Z,142186.59
2023-02-22T16:37:56.506Z,142149.47
2023-02-22T16:43:05.280Z,142114.88
2023-02-22T16:48:15.181Z,142107.47
2023-02-22T16:53:20.017Z,142081.53
2023-02-22T16:58:28.764Z,142102.53
2023-02-22T17:03:32.138Z,142051.88
2023-02-22T17:08:35.801Z,142044.47
2023-02-22T17:13:41.629Z,142045.69
2023-02-22T17:18:46.131Z,142006.16
2023-02-22T17:23:49.962Z,142002.44
2023-02-22T17:28:55.385Z,141983.94
2023-02-22T17:34:03.009Z,141964.16
2023-02-22T17:39:06.781Z,141939.50
2023-02-22T17:44:11.641Z,141932.13
2023-02-22T17:49:17.400Z,141923.44
2023-02-22T17:54:23.059Z,141897.50
2023-02-22T17:59:28.289Z,141886.41
2023-02-22T18:04:33.848Z,141890.13
2023-02-22T18:09:37.999Z,141858.03
2023-02-22T18:14:43.284Z,141830.84
2023-02-22T18:19:47.581Z,141813.56
2023-02-22T18:24:59.496Z,141816.06
2023-02-22T18:30:07.210Z,141792.63
2023-02-22T18:35:10.813Z,141775.31
2023-02-22T18:40:14.664Z,141769.16
2023-02-22T18:45:21.136Z,141735.84
2023-02-22T18:50:28.755Z,141709.94
2023-02-22T18:55:32.249Z,141675.41
2023-02-22T19:00:38.124Z,141671.66
2023-02-22T19:05:41.908Z,141663.03
2023-02-22T19:10:49.454Z,141630.97
2023-02-22T19:15:57.212Z,141614.91
2023-02-22T19:21:01.785Z,141587.78
2023-02-22T19:26:09.294Z,141569.31
2023-02-22T19:31:16.389Z,141558.19
2023-02-22T19:36:23.090Z,141540.94
2023-02-22T19:41:26.885Z,141534.78
2023-02-22T19:46:32.131Z,141518.75
2023-02-22T19:51:36.187Z,141511.34
2023-02-22T19:56:39.829Z,141500.22
2023-02-22T20:01:45.755Z,141497.81
2023-02-22T20:06:51.956Z,141480.59
2023-02-22T20:11:56.212Z,141474.41
2023-02-22T20:17:01.551Z,141453.47
2023-02-22T20:22:14.698Z,141439.88
2023-02-22T20:27:18.123Z,141423.91
2023-02-22T20:32:24.675Z,141411.53
2023-02-22T20:37:28.549Z,141421.38
2023-02-22T20:42:34.647Z,141404.16
2023-02-22T20:47:44.997Z,141378.28
2023-02-22T20:52:48.905Z,141356.09
2023-02-22T20:57:52.662Z,141349.94
2023-02-22T21:02:58.784Z,141362.25
2023-02-22T21:08:03.473Z,141341.31
2023-02-22T21:13:11.267Z,141354.84
2023-02-22T21:18:16.747Z,141317.91
2023-02-22T21:23:20.316Z,141311.75
2023-02-22T21:28:27.695Z,141333.91
2023-02-22T21:33:35.667Z,141331.44
2023-02-22T21:38:39.774Z,141319.13
2023-02-22T21:43:49.697Z,141328.97
2023-02-22T21:48:58.750Z,141278.47
2023-02-22T21:54:06.717Z,141280.94
2023-02-22T21:59:13.237Z,141266.16
2023-02-22T22:04:20.472Z,141245.22
2023-02-22T22:09:24.984Z,141251.38
2023-02-22T22:14:28.862Z,141204.59
2023-02-22T22:19:38.057Z,141207.06
2023-02-22T22:24:45.863Z,141199.69
2023-02-22T22:29:50.686Z,141186.13
2023-02-22T22:34:59.149Z,141177.50
2023-02-22T22:40:05.635Z,141171.38
2023-02-22T22:45:11.836Z,141187.34
2023-02-22T22:50:20.183Z,141166.41
